createdAt,value
2022-11-23T00:02:20.660Z,100.00
2022-11-23T00:05:11.359Z,100.00
2022-11-23T00:07:57.934Z,100.00
2022-11-23T00:10:44.674Z,100.00
2022-11-23T00:13:31.024Z,100.00
2022-11-23T00:16:22.893Z,100.00
2022-11-23T00:19:09.726Z,100.00
2022-11-23T00:21:56.024Z,100.00
2022-11-23T00:24:42.354Z,100.00
2022-11-23T00:27:29.020Z,100.00
2022-11-23T00:30:15.542Z,100.00
2022-11-23T00:33:02.529Z,100.00
2022-11-23T02:47:05.562Z,100.00
2022-11-23T02:49:52.349Z,100.00
2022-11-23T02:52:38.878Z,100.00
2022-11-23T02:55:25.441Z,100.00
2022-11-23T02:58:12.339Z,100.00
2022-11-23T03:00:58.959Z,100.00
2022-11-23T03:03:45.566Z,100.00
2022-11-23T03:06:32.018Z,100.00
2022-11-23T03:09:18.813Z,100.00
2022-11-23T03:12:06.133Z,100.00
2022-11-23T03:14:52.717Z,100.00
2022-11-23T03:17:40.200Z,100.00
2022-11-23T03:20:29.496Z,100.00
2022-11-23T03:23:16.181Z,100.00
2022-11-23T03:26:08.540Z,100.00
2022-11-23T03:29:05.408Z,100.00
2022-11-23T03:31:55.233Z,100.00
2022-11-23T03:34:42.047Z,100.00
2022-11-23T03:37:28.650Z,100.00
2022-11-23T03:40:15.444Z,100.00
2022-11-23T03:43:27.937Z,100.00
2022-11-23T03:46:14.117Z,100.00
2022-11-23T03:49:00.445Z,100.00
2022-11-23T03:51:48.064Z,100.00
2022-11-23T03:54:34.722Z,100.00
2022-11-23T03:57:21.137Z,100.00
2022-11-23T04:00:09.053Z,100.00
2022-11-23T04:02:59.408Z,100.00
2022-11-23T04:06:06.128Z,100.00
2022-11-23T04:09:13.256Z,100.00
2022-11-23T04:12:21.056Z,100.00
2022-11-23T04:15:07.793Z,100.00
2022-11-23T04:17:55.251Z,100.00
2022-11-23T04:20:41.578Z,100.00
2022-11-23T04:23:27.840Z,100.00
2022-11-23T04:26:14.229Z,100.00
2022-11-23T04:29:03.619Z,100.00
2022-11-23T04:31:52.693Z,100.00
2022-11-23T04:34:39.683Z,100.00
2022-11-23T04:37:27.512Z,100.00
2022-11-23T04:40:14.422Z,100.00
2022-11-23T04:43:13.741Z,100.00
2022-11-23T04:46:00.192Z,100.00
2022-11-23T04:48:49.793Z,100.00
2022-11-23T04:51:37.525Z,100.00
2022-11-23T04:54:24.178Z,100.00
2022-11-23T04:57:15.890Z,100.00
2022-11-23T05:00:05.090Z,100.00
2022-11-23T05:02:54.586Z,100.00
2022-11-23T05:05:45.203Z,100.00
2022-11-23T05:08:32.154Z,100.00
2022-11-23T05:11:39.996Z,100.00
2022-11-23T05:14:28.323Z,100.00
2022-11-23T05:17:14.860Z,100.00
2022-11-23T05:20:02.132Z,100.00
2022-11-23T05:22:51.801Z,100.00
2022-11-23T05:25:41.613Z,100.00
2022-11-23T05:28:40.170Z,100.00
2022-11-23T05:31:29.069Z,100.00
2022-11-23T05:34:16.384Z,100.00
2022-11-23T05:37:06.187Z,100.00
2022-11-23T05:39:52.735Z,100.00
2022-11-23T05:42:40.369Z,100.00
2022-11-23T05:45:35.228Z,100.00
2022-11-23T05:48:22.709Z,100.00
2022-11-23T05:51:17.207Z,100.00
2022-11-23T05:54:05.204Z,100.00
2022-11-23T05:57:01.889Z,100.00
2022-11-23T05:59:56.081Z,100.00
2022-11-23T06:02:48.018Z,100.00
2022-11-23T06:05:34.395Z,100.00
2022-11-23T06:08:20.990Z,100.00
2022-11-23T06:11:08.160Z,100.00
2022-11-23T06:13:54.824Z,100.00
2022-11-23T06:16:41.546Z,100.00
2022-11-23T06:19:53.969Z,100.00
2022-11-23T06:22:40.572Z,100.00
2022-11-23T06:25:28.067Z,100.00
2022-11-23T06:28:19.267Z,100.00
2022-11-23T06:31:07.869Z,100.00
2022-11-23T06:33:54.619Z,100.00
2022-11-23T06:36:43.124Z,100.00
2022-11-23T06:39:30.119Z,100.00
2022-11-23T06:45:28.438Z,100.00
2022-11-23T06:48:18.681Z,100.00
2022-11-23T06:51:07.568Z,100.00
2022-11-23T06:53:56.890Z,100.00
2022-11-23T06:56:44.005Z,100.00
2022-11-23T06:59:31.150Z,100.00
2022-11-23T07:02:18.033Z,100.00
2022-11-23T07:05:05.136Z,100.00
2022-11-23T07:07:51.482Z,100.00
2022-11-23T07:10:44.520Z,100.00
2022-11-23T07:13:35.435Z,100.00
2022-11-23T07:16:22.408Z,100.00
2022-11-23T07:19:10.921Z,100.00
2022-11-23T07:21:57.252Z,100.00
2022-11-23T07:24:46.721Z,100.00
2022-11-23T07:27:33.228Z,100.00
2022-11-23T07:30:25.203Z,100.00
2022-11-23T07:33:14.601Z,100.00
2022-11-23T07:36:02.787Z,100.00
2022-11-23T07:38:50.734Z,100.00
2022-11-23T07:41:39.848Z,100.00
2022-11-23T07:44:36.941Z,100.00
2022-11-23T07:47:25.049Z,100.00
2022-11-23T07:50:13.137Z,100.00
2022-11-23T07:53:02.095Z,100.00
2022-11-23T07:55:48.585Z,100.00
2022-11-23T07:58:34.940Z,100.00
2022-11-23T08:01:21.408Z,100.00
2022-11-23T08:04:07.621Z,100.00
2022-11-23T11:16:59.548Z,85.23
2022-11-23T11:19:45.952Z,83.67
2022-11-23T11:22:34.979Z,82.30
2022-11-23T11:25:30.607Z,82.12
2022-11-23T11:28:42.448Z,83.71
2022-11-23T11:31:57.765Z,85.32
2022-11-23T11:34:55.681Z,81.18
2022-11-23T11:37:44.753Z,77.70
2022-11-23T11:40:45.183Z,74.97
2022-11-23T11:43:43.809Z,73.88
2022-11-23T11:46:37.914Z,77.37
2022-11-23T11:49:31.032Z,76.00
2022-11-23T11:52:23.565Z,75.00
2022-11-23T11:55:24.901Z,75.75
2022-11-23T11:58:15.831Z,73.98
2022-11-23T12:01:32.632Z,72.80
2022-11-23T12:04:39.712Z,74.04
2022-11-23T12:07:30.411Z,71.77
2022-11-23T12:10:27.933Z,73.25
2022-11-23T12:13:21.400Z,71.96
2022-11-23T12:16:20.194Z,71.82
2022-11-23T12:19:14.143Z,72.21
2022-11-23T12:22:26.557Z,71.37
2022-11-23T12:25:24.983Z,71.00
2022-11-23T12:28:43.282Z,70.16
2022-11-23T12:31:49.030Z,70.09
2022-11-23T12:35:17.220Z,71.81
2022-11-23T12:38:16.721Z,70.91
2022-11-23T12:41:29.324Z,70.69
2022-11-23T12:44:49.846Z,71.39
2022-11-23T12:47:52.570Z,72.35
2022-11-23T12:51:29.558Z,70.81
2022-11-23T12:54:25.653Z,70.41
2022-11-23T12:57:35.171Z,69.70
2022-11-23T13:00:23.191Z,70.01
2022-11-23T13:03:34.508Z,68.65
2022-11-23T13:07:20.716Z,68.63
2022-11-23T13:10:33.123Z,68.92
2022-11-23T13:13:38.160Z,69.08
2022-11-23T13:16:39.917Z,68.13
2022-11-23T13:19:44.980Z,68.05
2022-11-23T13:22:32.877Z,68.22
2022-11-23T13:25:27.625Z,71.53
2022-11-23T13:28:29.206Z,71.56
2022-11-23T13:31:16.133Z,71.50
2022-11-23T13:34:23.900Z,69.87
2022-11-23T13:37:12.672Z,69.77
2022-11-23T13:40:03.828Z,71.49
2022-11-23T13:42:52.235Z,69.78
2022-11-23T13:45:39.031Z,70.49
2022-11-23T13:48:55.561Z,71.03
2022-11-23T13:51:35.464Z,73.20
2022-11-23T13:54:24.800Z,72.01
2022-11-23T13:57:13.282Z,74.11
2022-11-23T14:00:37.471Z,75.44
2022-11-23T14:03:42.831Z,78.87
2022-11-23T14:06:54.396Z,80.78
2022-11-23T14:10:00.085Z,81.70
2022-11-23T14:13:05.628Z,80.87
2022-11-23T14:16:00.278Z,81.33
2022-11-23T14:18:54.091Z,81.14
2022-11-23T14:22:07.805Z,81.60
2022-11-23T14:25:03.427Z,80.56
2022-11-23T14:28:38.425Z,81.91
2022-11-23T14:31:46.181Z,82.77
2022-11-23T14:34:54.509Z,84.35
2022-11-23T14:37:59.154Z,85.02
2022-11-23T14:41:01.898Z,83.47
2022-11-23T14:43:49.731Z,83.88
2022-11-23T14:46:36.512Z,85.08
2022-11-23T14:49:23.092Z,86.74
2022-11-23T14:52:19.344Z,87.63
2022-11-23T14:55:06.422Z,89.12
2022-11-23T14:57:58.947Z,91.01
2022-11-23T15:00:45.747Z,92.44
2022-11-23T15:03:50.077Z,93.40
2022-11-23T15:06:45.709Z,95.09
2022-11-23T15:10:00.723Z,95.99
2022-11-23T15:12:49.321Z,97.99
2022-11-23T15:15:38.033Z,99.36
2022-11-23T15:18:38.661Z,100.00
2022-11-23T15:21:28.168Z,100.00
2022-11-23T15:24:23.323Z,100.00
2022-11-23T15:27:22.832Z,100.00
2022-11-23T15:30:16.333Z,100.00
2022-11-23T15:33:08.906Z,100.00
2022-11-23T15:35:55.668Z,100.00
2022-11-23T15:38:42.090Z,100.00
2022-11-23T15:41:30.183Z,100.00
2022-11-23T15:44:24.785Z,100.00
2022-11-23T15:47:18.117Z,100.00
2022-11-23T15:50:09.509Z,100.00
2022-11-23T15:52:58.544Z,100.00
2022-11-23T15:55:45.479Z,100.00
2022-11-23T15:58:33.824Z,100.00
2022-11-23T16:01:21.985Z,100.00
2022-11-23T16:04:50.411Z,100.00
2022-11-23T16:07:51.020Z,100.00
2022-11-23T16:10:54.072Z,100.00
2022-11-23T16:13:40.211Z,100.00
2022-11-23T16:16:27.210Z,100.00
2022-11-23T16:19:31.813Z,100.00
2022-11-23T16:22:24.152Z,100.00
2022-11-23T16:25:24.753Z,100.00
2022-11-23T16:28:25.636Z,100.00
2022-11-23T16:31:51.525Z,100.00
2022-11-23T16:34:38.043Z,100.00
2022-11-23T16:37:26.280Z,100.00
2022-11-23T16:40:13.936Z,100.00
2022-11-23T16:43:00.577Z,100.00
2022-11-23T16:45:51.128Z,100.00
2022-11-23T16:48:42.280Z,100.00
2022-11-23T16:51:28.801Z,100.00
2022-11-23T16:54:18.049Z,100.00
2022-11-23T16:57:07.308Z,100.00
2022-11-23T16:59:54.019Z,100.00
2022-11-23T17:02:40.659Z,100.00
2022-11-23T17:05:27.216Z,100.00
2022-11-23T17:08:19.782Z,100.00
2022-11-23T17:11:16.877Z,100.00
2022-11-23T17:14:04.362Z,100.00
2022-11-23T17:16:50.954Z,100.00
2022-11-23T17:19:37.625Z,100.00
2022-11-23T17:22:23.889Z,100.00
2022-11-23T17:25:14.922Z,100.00
2022-11-23T17:28:03.191Z,100.00
2022-11-23T17:30:50.130Z,100.00
2022-11-23T17:33:36.281Z,100.00
2022-11-23T17:36:23.348Z,100.00
2022-11-23T17:39:19.144Z,100.00
2022-11-23T17:42:05.498Z,100.00
2022-11-23T17:44:51.721Z,100.00
2022-11-23T17:47:38.534Z,100.00
2022-11-23T17:50:28.612Z,100.00
2022-11-23T17:53:14.970Z,100.00
2022-11-23T17:56:01.246Z,100.00
2022-11-23T17:58:48.065Z,100.00
2022-11-23T18:01:34.768Z,100.00
2022-11-23T18:04:21.284Z,100.00
2022-11-23T18:07:10.345Z,100.00
2022-11-23T18:09:56.798Z,100.00
2022-11-23T18:12:44.566Z,100.00
2022-11-23T18:15:31.002Z,100.00
2022-11-23T18:18:18.033Z,100.00
2022-11-23T18:21:07.117Z,100.00
2022-11-23T18:23:53.305Z,100.00
2022-11-23T18:26:39.643Z,100.00
2022-11-23T18:29:26.098Z,100.00
2022-11-23T18:32:12.379Z,100.00
2022-11-23T18:34:58.642Z,100.00
2022-11-23T18:37:45.078Z,100.00
2022-11-23T18:40:31.340Z,100.00
2022-11-23T18:43:17.533Z,100.00
2022-11-23T18:46:05.879Z,100.00
2022-11-23T18:48:53.437Z,100.00
2022-11-23T18:51:39.683Z,100.00
2022-11-23T18:54:25.938Z,100.00
2022-11-23T18:57:16.378Z,100.00
2022-11-23T19:00:05.880Z,100.00
2022-11-23T19:02:56.003Z,100.00
2022-11-23T19:05:42.396Z,100.00
2022-11-23T20:55:39.053Z,100.00
2022-11-23T20:58:25.640Z,100.00
2022-11-23T21:01:14.474Z,100.00
2022-11-23T21:04:00.836Z,100.00
2022-11-23T21:06:47.037Z,100.00
2022-11-23T21:09:33.769Z,100.00
2022-11-23T21:12:39.106Z,100.00
2022-11-23T21:15:25.469Z,100.00
2022-11-23T21:18:12.295Z,100.00
2022-11-23T21:20:58.878Z,100.00
2022-11-23T21:23:48.199Z,100.00
2022-11-23T21:26:37.464Z,100.00
2022-11-23T21:29:23.990Z,100.00
2022-11-23T21:32:11.483Z,100.00
2022-11-23T21:34:57.591Z,100.00
2022-11-23T21:37:44.199Z,100.00
2022-11-23T21:40:30.717Z,100.00
2022-11-23T21:43:16.949Z,100.00
2022-11-23T21:46:05.801Z,100.00
2022-11-23T21:48:57.758Z,100.00
2022-11-23T21:51:45.527Z,100.00
2022-11-23T21:54:32.260Z,100.00
2022-11-23T21:57:18.726Z,100.00
2022-11-23T22:00:05.480Z,100.00
2022-11-23T22:02:58.448Z,100.00
2022-11-23T22:05:55.878Z,100.00
2022-11-23T22:08:47.148Z,100.00
2022-11-23T22:11:35.681Z,100.00
2022-11-23T22:14:22.527Z,100.00
2022-11-23T22:17:08.980Z,100.00
2022-11-23T22:19:55.243Z,100.00
2022-11-23T22:22:41.516Z,100.00
2022-11-23T22:25:27.892Z,100.00
2022-11-23T22:28:14.197Z,100.00
2022-11-23T22:31:00.373Z,100.00
2022-11-23T22:33:46.887Z,100.00
2022-11-23T22:36:33.663Z,100.00
2022-11-23T22:39:19.948Z,100.00
2022-11-23T22:42:06.289Z,100.00
2022-11-23T22:44:52.599Z,100.00
2022-11-23T22:47:38.946Z,100.00
2022-11-23T22:50:25.225Z,100.00
2022-11-23T22:53:11.634Z,100.00
2022-11-23T22:56:03.092Z,100.00
2022-11-23T22:58:49.448Z,100.00
2022-11-23T23:01:35.909Z,100.00
2022-11-23T23:04:22.180Z,100.00
2022-11-23T23:07:08.517Z,100.00
2022-11-23T23:09:55.186Z,100.00
2022-11-23T23:12:41.432Z,100.00
2022-11-23T23:15:27.984Z,100.00
2022-11-23T23:18:16.166Z,100.00
2022-11-23T23:21:02.604Z,100.00
2022-11-23T23:23:50.783Z,100.00
2022-11-23T23:26:37.292Z,100.00
2022-11-23T23:29:23.580Z,100.00
2022-11-23T23:32:09.971Z,100.00
2022-11-23T23:34:56.645Z,100.00
2022-11-23T23:37:42.848Z,100.00
2022-11-23T23:40:29.292Z,100.00
2022-11-23T23:43:15.672Z,100.00
2022-11-23T23:46:04.661Z,100.00
2022-11-23T23:48:51.464Z,100.00
2022-11-23T23:51:37.960Z,100.00
2022-11-23T23:54:25.081Z,100.00
2022-11-23T23:57:11.319Z,100.00
2022-11-23T23:59:57.651Z,100.00
